Terminal Aerodrome Forecast
Issued by NWS Nashville, TN

Home | Current Version | Previous Version | Text Only | Print | Product List | Glossary On
Versions: 1 2 3 4 5 6 7 8 9 10 11 12 13 14 15
673
FTUS44 KOHX 271721
TAFCSV
TAF
KCSV 271721Z 2718/2818 13005KT P6SM VCTS SCT030CB BKN200
     FM280200 14003KT P6SM BKN200
     FM280800 00000KT 4SM BR SKC
     FM281100 00000KT 2SM BR SKC
     FM281300 24003KT P6SM SKC=

USA.gov is the U.S. government's official web portal to all federal, state and local government web resources and services.